Time;durP1;ratioP1;P1;durP2;ratioP2;P2;SDS_P1;SDS_P2;PMS_P1;PMS_P2;Temp;Humidity;BMP_temperature;BMP_pressure;BME280_temperature;BME280_humidity;BME280_pressure;Samples;Min_cycle;Max_cycle;Signal;HPM_P1;HPM_P2
2020/12/14 00:01:37;;;;;;;5.78;5.18;;;4.70;99.90;;;;;;5043859;28;20048;-75
2020/12/14 00:04:03;;;;;;;5.60;5.10;;;4.70;99.90;;;;;;5042978;28;20025;-76
2020/12/14 00:06:29;;;;;;;5.32;4.45;;;4.60;99.90;;;;;;5041528;28;20040;-75
2020/12/14 00:08:54;;;;;;;6.47;4.82;;;4.60;99.90;;;;;;5033605;28;20046;-74
2020/12/14 00:11:20;;;;;;;5.82;4.70;;;4.50;99.90;;;;;;5051705;28;20049;-74
2020/12/14 00:13:48;;;;;;;5.35;4.85;;;4.50;99.90;;;;;;5037640;28;20026;-77
2020/12/14 00:16:14;;;;;;;6.18;5.53;;;4.50;99.90;;;;;;5039049;28;20110;-76
2020/12/14 00:18:39;;;;;;;5.82;5.22;;;4.40;99.90;;;;;;5026529;28;20029;-75
2020/12/14 00:21:05;;;;;;;5.80;5.20;;;4.30;99.90;;;;;;5018565;28;20038;-75
2020/12/14 00:23:30;;;;;;;8.07;7.20;;;4.30;99.90;;;;;;5036427;28;20076;-76
2020/12/14 00:25:56;;;;;;;5.63;5.13;;;4.40;99.90;;;;;;5027733;28;20033;-76
2020/12/14 00:28:22;;;;;;;5.97;5.47;;;4.40;99.90;;;;;;5030930;28;20041;-76
2020/12/14 00:30:47;;;;;;;5.50;5.00;;;4.30;99.90;;;;;;5022033;28;20037;-76
2020/12/14 00:33:13;;;;;;;9.27;5.90;;;4.30;99.90;;;;;;5022497;28;20030;-75
2020/12/14 00:35:38;;;;;;;5.60;5.03;;;4.30;99.90;;;;;;5033699;28;20022;-76
2020/12/14 00:38:04;;;;;;;8.52;6.05;;;4.30;99.90;;;;;;5027932;28;20168;-76
2020/12/14 00:40:29;;;;;;;6.95;5.47;;;4.20;99.90;;;;;;5021562;28;20030;-76
2020/12/14 00:42:56;;;;;;;5.80;5.03;;;4.10;99.90;;;;;;5020572;28;20028;-76
2020/12/14 00:45:22;;;;;;;8.43;6.43;;;4.10;99.90;;;;;;5033141;28;20021;-76
2020/12/14 00:47:47;;;;;;;5.88;5.38;;;4.10;99.90;;;;;;5034409;28;20028;-75
2020/12/14 00:50:13;;;;;;;7.05;6.32;;;4.10;99.90;;;;;;5035529;28;20080;-75
2020/12/14 00:52:38;;;;;;;6.15;5.63;;;4.10;99.90;;;;;;5022124;28;20041;-76
2020/12/14 00:55:04;;;;;;;6.78;6.07;;;4.10;99.90;;;;;;5027213;28;20408;-75
2020/12/14 00:57:30;;;;;;;7.85;7.05;;;4.00;99.90;;;;;;5025969;28;20033;-76
2020/12/14 00:59:57;;;;;;;7.32;6.15;;;4.00;99.90;;;;;;5029445;28;20100;-76
2020/12/14 01:02:23;;;;;;;9.07;5.78;;;4.00;99.90;;;;;;5033258;28;20025;-76
2020/12/14 01:04:53;;;;;;;6.68;5.97;;;4.00;99.90;;;;;;5028153;28;20036;-76
2020/12/14 01:07:18;;;;;;;6.60;6.00;;;4.00;99.90;;;;;;5023388;28;20060;-76
2020/12/14 01:09:44;;;;;;;10.20;8.23;;;4.00;99.90;;;;;;5025201;28;20021;-75
2020/12/14 01:12:10;;;;;;;6.63;5.97;;;3.90;99.90;;;;;;5023728;28;20104;-76
2020/12/14 01:14:36;;;;;;;6.35;5.72;;;3.90;99.90;;;;;;5023423;28;20025;-77
2020/12/14 01:17:01;;;;;;;6.70;5.93;;;4.00;99.90;;;;;;5023414;28;20026;-77
2020/12/14 01:19:27;;;;;;;9.20;5.25;;;4.00;99.90;;;;;;5046305;28;20029;-77
2020/12/14 01:21:52;;;;;;;8.50;6.15;;;4.00;99.90;;;;;;5028367;28;20029;-76
2020/12/14 01:24:18;;;;;;;8.32;6.40;;;4.00;99.90;;;;;;5033118;28;20041;-78
2020/12/14 01:26:44;;;;;;;6.70;5.85;;;4.00;99.90;;;;;;5024363;28;20105;-76
2020/12/14 01:29:09;;;;;;;6.03;5.43;;;4.10;99.90;;;;;;5024302;28;20038;-76
2020/12/14 01:31:35;;;;;;;7.68;5.82;;;4.20;99.90;;;;;;5023095;28;20026;-77
2020/12/14 01:34:00;;;;;;;5.25;4.75;;;4.30;99.90;;;;;;5048700;28;20143;-77
2020/12/14 01:36:26;;;;;;;7.93;5.35;;;4.30;99.90;;;;;;5035196;28;20025;-76
2020/12/14 01:38:52;;;;;;;6.30;5.70;;;4.30;99.90;;;;;;5020418;28;20048;-76
2020/12/14 01:41:17;;;;;;;7.32;6.03;;;4.30;99.90;;;;;;5024255;28;20037;-77
2020/12/14 01:43:43;;;;;;;7.18;6.35;;;4.20;99.90;;;;;;5025046;28;20034;-77
2020/12/14 01:46:09;;;;;;;5.47;4.97;;;4.30;99.90;;;;;;5035595;28;20082;-75
2020/12/14 01:48:34;;;;;;;6.82;5.82;;;4.30;99.90;;;;;;5030505;28;20144;-77
2020/12/14 01:51:00;;;;;;;6.10;5.50;;;4.30;99.90;;;;;;5033876;28;20030;-76
2020/12/14 01:53:30;;;;;;;6.63;5.88;;;4.20;99.90;;;;;;5032524;28;20026;-77
2020/12/14 01:55:56;;;;;;;6.85;5.70;;;4.10;99.90;;;;;;5035941;28;20026;-77
2020/12/14 01:58:22;;;;;;;6.18;5.57;;;4.10;99.90;;;;;;5039540;28;20052;-76
2020/12/14 02:00:48;;;;;;;6.22;5.63;;;4.10;99.90;;;;;;5032062;28;20092;-76
2020/12/14 02:03:14;;;;;;;7.43;5.55;;;4.10;99.90;;;;;;5037694;28;20037;-77
2020/12/14 02:05:39;;;;;;;6.30;5.70;;;4.10;99.90;;;;;;5039121;28;20029;-77
2020/12/14 02:08:05;;;;;;;6.75;6.10;;;4.10;99.90;;;;;;5039088;28;20045;-77
2020/12/14 02:10:32;;;;;;;11.57;6.28;;;4.00;99.90;;;;;;5039479;28;20043;-76
2020/12/14 02:12:58;;;;;;;8.85;7.25;;;3.90;99.90;;;;;;5038866;28;20033;-77
2020/12/14 02:15:24;;;;;;;7.55;6.25;;;3.80;99.90;;;;;;5047528;28;20029;-75
2020/12/14 02:17:49;;;;;;;6.80;5.85;;;3.80;99.90;;;;;;5052921;28;20099;-76
2020/12/14 02:20:15;;;;;;;9.23;6.40;;;3.80;99.90;;;;;;5026878;28;20041;-77
2020/12/14 02:22:41;;;;;;;6.32;5.65;;;3.80;99.90;;;;;;5028580;28;20108;-77
2020/12/14 02:25:07;;;;;;;6.35;5.75;;;3.80;99.90;;;;;;5039608;28;20033;-76
2020/12/14 02:27:35;;;;;;;6.50;5.90;;;3.80;99.90;;;;;;5049881;28;20089;-74
2020/12/14 02:30:01;;;;;;;7.28;6.30;;;3.80;99.90;;;;;;5057977;28;20017;-75
2020/12/14 02:32:29;;;;;;;5.78;5.18;;;3.80;99.90;;;;;;5044164;28;20022;-74
2020/12/14 02:34:55;;;;;;;5.82;5.32;;;3.80;99.90;;;;;;5046229;28;20044;-74
2020/12/14 02:37:25;;;;;;;7.25;5.93;;;3.80;99.90;;;;;;5059231;28;20386;-75
2020/12/14 02:39:51;;;;;;;8.52;5.88;;;3.70;99.90;;;;;;5044177;28;20061;-75
2020/12/14 02:42:18;;;;;;;5.97;5.00;;;3.70;99.90;;;;;;5045756;28;20040;-77
2020/12/14 02:44:45;;;;;;;6.05;5.43;;;3.70;99.90;;;;;;5035460;28;20111;-77
2020/12/14 02:47:11;;;;;;;6.75;5.93;;;3.60;99.90;;;;;;5030087;28;20075;-75
2020/12/14 02:49:37;;;;;;;7.00;5.90;;;3.70;99.90;;;;;;5030408;28;20046;-76
2020/12/14 02:52:04;;;;;;;6.18;5.57;;;3.70;99.90;;;;;;5027586;28;20096;-76
2020/12/14 02:54:30;;;;;;;6.00;5.50;;;3.70;99.90;;;;;;5029418;28;20039;-77
2020/12/14 02:56:56;;;;;;;6.88;6.18;;;3.70;99.90;;;;;;5026375;28;20025;-77
2020/12/14 02:59:23;;;;;;;7.43;6.22;;;3.60;99.90;;;;;;5016751;28;20034;-77
2020/12/14 03:01:49;;;;;;;6.70;6.10;;;3.50;99.90;;;;;;5018015;28;20057;-77
2020/12/14 03:04:19;;;;;;;6.88;6.18;;;3.50;99.90;;;;;;5015370;28;20069;-76
2020/12/14 03:06:46;;;;;;;6.22;5.63;;;3.50;99.90;;;;;;5015753;28;20022;-77
2020/12/14 03:09:12;;;;;;;7.35;6.57;;;3.40;99.90;;;;;;5024618;28;20039;-77
2020/12/14 03:11:39;;;;;;;6.38;5.78;;;3.40;99.90;;;;;;5029313;28;20433;-76
2020/12/14 03:14:06;;;;;;;6.50;5.88;;;3.40;99.90;;;;;;5039070;28;20033;-76
2020/12/14 03:16:32;;;;;;;7.05;6.35;;;3.30;99.90;;;;;;5041175;28;20025;-75
2020/12/14 03:18:57;;;;;;;7.28;6.53;;;3.40;99.90;;;;;;5026637;28;20038;-76
2020/12/14 03:21:23;;;;;;;7.03;6.32;;;3.50;99.90;;;;;;5048071;28;20025;-76
2020/12/14 03:23:48;;;;;;;6.28;5.68;;;3.60;99.90;;;;;;5035322;28;20056;-76
2020/12/14 03:26:15;;;;;;;6.47;5.88;;;3.50;99.90;;;;;;5033358;28;20109;-76
2020/12/14 03:28:41;;;;;;;6.85;6.15;;;3.50;99.90;;;;;;5018358;28;20105;-76
2020/12/14 03:31:06;;;;;;;7.78;6.43;;;3.50;99.90;;;;;;5024107;28;20061;-76
2020/12/14 03:33:32;;;;;;;6.50;5.88;;;3.40;99.90;;;;;;5031772;28;20033;-76
2020/12/14 03:35:59;;;;;;;6.70;5.55;;;3.40;99.90;;;;;;5036523;28;20056;-78
2020/12/14 03:38:24;;;;;;;6.60;5.55;;;3.40;99.90;;;;;;5019311;28;20401;-75
2020/12/14 03:40:50;;;;;;;6.40;5.80;;;3.40;99.90;;;;;;5015071;28;20030;-76
2020/12/14 03:43:15;;;;;;;6.22;5.72;;;3.30;99.90;;;;;;5017999;28;20129;-76
2020/12/14 03:45:42;;;;;;;6.97;6.05;;;3.30;99.90;;;;;;5023550;28;20097;-75
2020/12/14 03:48:12;;;;;;;7.13;6.43;;;3.30;99.90;;;;;;5023412;28;20025;-78
2020/12/14 03:50:43;;;;;;;6.87;6.27;;;3.20;99.90;;;;;;5030668;28;20044;-76
2020/12/14 03:53:17;;;;;;;7.05;6.35;;;3.20;99.90;;;;;;5020727;28;20355;-77
2020/12/14 03:55:42;;;;;;;6.70;5.47;;;3.30;99.90;;;;;;5039713;28;20052;-78
2020/12/14 03:58:08;;;;;;;6.55;5.90;;;3.20;99.90;;;;;;5042772;28;20034;-76
2020/12/14 04:00:34;;;;;;;6.82;5.70;;;3.10;99.90;;;;;;5036772;28;20053;-76
2020/12/14 04:03:07;;;;;;;6.32;5.72;;;3.10;99.90;;;;;;5028919;28;20034;-76
2020/12/14 04:05:32;;;;;;;8.10;6.53;;;3.00;99.90;;;;;;5021863;28;20052;-76
2020/12/14 04:07:58;;;;;;;6.93;5.78;;;3.00;99.90;;;;;;5027526;28;20018;-76
2020/12/14 04:10:24;;;;;;;5.70;5.20;;;2.90;99.90;;;;;;5022873;28;20029;-76
2020/12/14 04:12:49;;;;;;;10.48;7.43;;;2.90;99.90;;;;;;5017751;28;20057;-76
2020/12/14 04:15:15;;;;;;;7.10;6.40;;;2.90;99.90;;;;;;5017354;28;20041;-77
2020/12/14 04:17:40;;;;;;;6.90;6.20;;;3.00;99.90;;;;;;5024456;28;20188;-76
2020/12/14 04:20:06;;;;;;;7.43;5.60;;;3.00;99.90;;;;;;5021993;28;20010;-77
2020/12/14 04:22:32;;;;;;;7.00;6.30;;;3.00;99.90;;;;;;5041400;28;20034;-75
2020/12/14 04:24:57;;;;;;;8.23;6.43;;;3.00;99.90;;;;;;5019177;28;20029;-77
2020/12/14 04:27:23;;;;;;;7.72;6.32;;;3.00;99.90;;;;;;5034602;28;20025;-77
2020/12/14 04:29:48;;;;;;;8.98;6.25;;;3.00;99.90;;;;;;5025068;28;20090;-77
2020/12/14 04:32:14;;;;;;;6.05;5.45;;;3.10;99.90;;;;;;5028891;28;20100;-76
2020/12/14 04:34:39;;;;;;;6.55;5.53;;;3.00;99.90;;;;;;5029794;28;20103;-77
2020/12/14 04:37:05;;;;;;;8.57;6.22;;;3.00;99.90;;;;;;5036525;28;20030;-77
2020/12/14 04:39:30;;;;;;;7.13;5.55;;;2.90;99.90;;;;;;5042980;23;20042;-79
2020/12/14 04:41:57;;;;;;;6.28;5.70;;;2.90;99.90;;;;;;5027817;28;20130;-78
2020/12/14 04:44:23;;;;;;;7.05;6.25;;;2.90;99.90;;;;;;5036790;28;20033;-78
2020/12/14 04:46:49;;;;;;;7.03;6.20;;;2.90;99.90;;;;;;5022151;28;20032;-78
2020/12/14 04:49:15;;;;;;;7.10;6.40;;;2.90;99.90;;;;;;5020911;28;20014;-78
2020/12/14 04:51:41;;;;;;;7.93;6.90;;;2.80;99.90;;;;;;5016723;28;20088;-77
2020/12/14 04:54:09;;;;;;;9.10;7.20;;;2.80;99.90;;;;;;5019411;28;20022;-78
2020/12/14 04:56:40;;;;;;;7.72;6.38;;;2.80;99.90;;;;;;5020659;28;20061;-80
2020/12/14 04:59:06;;;;;;;;;;;2.70;99.90;;;;;;5021131;28;20038;-77
2020/12/14 05:01:32;;;;;;;6.80;5.78;;;2.70;99.90;;;;;;5049032;28;19932;-78
2020/12/14 05:03:57;;;;;;;8.95;6.93;;;2.70;99.90;;;;;;5016883;28;20050;-78
2020/12/14 05:06:23;;;;;;;9.02;7.50;;;2.70;99.90;;;;;;5020386;28;20022;-79
2020/12/14 05:08:49;;;;;;;8.00;7.15;;;2.70;99.90;;;;;;5006921;28;20026;-77
2020/12/14 05:11:14;;;;;;;7.30;6.60;;;2.70;99.90;;;;;;5003046;28;20034;-78
2020/12/14 05:13:40;;;;;;;6.85;6.22;;;2.60;99.90;;;;;;5003521;28;20054;-78
2020/12/14 05:16:06;;;;;;;6.82;5.75;;;2.60;99.90;;;;;;5020630;28;20037;-78
2020/12/14 05:18:32;;;;;;;8.80;7.15;;;2.60;99.90;;;;;;5014635;28;20025;-79
2020/12/14 05:21:05;;;;;;;7.07;5.97;;;2.60;99.90;;;;;;5005256;28;20045;-78
2020/12/14 05:23:31;;;;;;;8.48;7.57;;;2.60;99.90;;;;;;5023206;28;20023;-79
2020/12/14 05:26:07;;;;;;;9.02;8.02;;;2.60;99.90;;;;;;5006432;28;20037;-79
2020/12/14 05:28:34;;;;;;;7.88;7.07;;;2.70;99.90;;;;;;5011607;28;20026;-79
2020/12/14 05:31:00;;;;;;;8.10;7.15;;;2.70;99.90;;;;;;5003229;28;20033;-78
2020/12/14 05:33:28;;;;;;;9.25;7.65;;;2.80;99.90;;;;;;5025607;28;20022;-79
2020/12/14 05:35:54;;;;;;;7.63;6.68;;;3.00;99.90;;;;;;5008763;28;20037;-80
2020/12/14 05:38:32;;;;;;;6.63;5.97;;;3.10;99.90;;;;;;5016242;28;20026;-79
2020/12/14 05:41:03;;;;;;;7.47;6.28;;;3.30;99.90;;;;;;5008938;28;20430;-79
2020/12/14 05:43:29;;;;;;;;;;;3.10;99.90;;;;;;5005563;28;20030;-77
2020/12/14 05:45:56;;;;;;;7.68;5.82;;;3.00;99.90;;;;;;5007246;28;19921;-77
2020/12/14 05:48:27;;;;;;;7.30;6.32;;;2.80;99.90;;;;;;5014000;28;20249;-79
2020/12/14 05:50:54;;;;;;;;;;;2.80;99.90;;;;;;5013540;28;20205;-77
2020/12/14 05:53:20;;;;;;;7.18;6.03;;;2.70;99.90;;;;;;5009341;28;19977;-78
2020/12/14 05:55:46;;;;;;;7.88;6.75;;;2.70;99.90;;;;;;5003543;28;20054;-79
2020/12/14 05:58:16;;;;;;;7.18;5.38;;;2.70;99.90;;;;;;5015836;28;20121;-78
2020/12/14 06:00:45;;;;;;;6.93;6.22;;;2.70;99.90;;;;;;5023209;28;20030;-79
2020/12/14 06:03:12;;;;;;;7.32;6.25;;;2.70;99.90;;;;;;5006114;28;20030;-79
2020/12/14 06:05:37;;;;;;;7.47;6.78;;;2.70;99.90;;;;;;5006396;28;20030;-79
2020/12/14 06:08:35;;;;;;;9.18;6.55;;;2.70;99.90;;;;;;5005353;28;20023;-79
2020/12/14 06:11:04;;;;;;;6.32;5.72;;;2.70;99.90;;;;;;5012994;28;20038;-79
2020/12/14 06:13:31;;;;;;;6.95;6.25;;;2.70;99.90;;;;;;5010992;28;20061;-79
2020/12/14 06:16:00;;;;;;;6.63;6.00;;;2.70;99.90;;;;;;5006066;28;20446;-77
2020/12/14 06:18:32;;;;;;;6.93;5.05;;;3.00;99.90;;;;;;5008853;28;20393;-78
2020/12/14 06:20:58;;;;;;;9.70;6.38;;;3.10;99.90;;;;;;5004440;28;20022;-77
2020/12/14 06:23:25;;;;;;;13.90;12.48;;;3.10;99.90;;;;;;5014828;28;20030;-79
2020/12/14 06:25:51;;;;;;;9.27;7.28;;;2.90;99.90;;;;;;5024252;28;20105;-79
2020/12/14 06:28:28;;;;;;;7.65;5.60;;;2.90;99.90;;;;;;5014261;28;20027;-80
2020/12/14 06:30:55;;;;;;;12.32;6.50;;;2.80;99.90;;;;;;5010631;28;20129;-79
2020/12/14 06:33:42;;;;;;;10.57;6.07;;;2.80;99.90;;;;;;5024430;28;20049;-79
2020/12/14 06:36:20;;;;;;;8.40;5.95;;;2.70;99.90;;;;;;5006184;28;20034;-79
2020/12/14 06:38:47;;;;;;;9.38;6.53;;;2.70;99.90;;;;;;5018096;28;20030;-79
2020/12/14 06:41:24;;;;;;;7.53;6.75;;;2.60;99.90;;;;;;5007640;28;20050;-78
2020/12/14 06:44:07;;;;;;;6.90;5.95;;;2.60;99.90;;;;;;5018449;28;20060;-78
2020/12/14 06:46:33;;;;;;;7.22;6.45;;;2.60;99.90;;;;;;5026438;28;20045;-79
2020/12/14 06:49:00;;;;;;;7.13;5.90;;;2.70;99.90;;;;;;5011969;28;20026;-78
2020/12/14 06:51:53;;;;;;;7.55;6.85;;;2.60;99.90;;;;;;5016127;28;20026;-77
2020/12/14 06:54:43;;;;;;;9.77;7.32;;;2.60;99.90;;;;;;5032345;28;20077;-79
2020/12/14 06:57:14;;;;;;;8.50;6.32;;;2.60;99.90;;;;;;5021675;28;20052;-79
2020/12/14 06:59:40;;;;;;;7.15;6.40;;;2.60;99.90;;;;;;5022566;28;20048;-78
2020/12/14 07:02:11;;;;;;;7.80;6.88;;;2.70;99.90;;;;;;5005206;28;20027;-79
2020/12/14 07:04:39;;;;;;;9.82;7.32;;;2.90;99.90;;;;;;5015543;28;20088;-81
2020/12/14 07:07:04;;;;;;;8.60;7.13;;;2.90;99.90;;;;;;5008291;28;20104;-79
2020/12/14 07:09:38;;;;;;;11.77;6.82;;;2.90;99.90;;;;;;5017113;28;20026;-80
2020/12/14 07:12:09;;;;;;;8.85;7.72;;;2.90;99.90;;;;;;5021827;28;20026;-79
2020/12/14 07:14:57;;;;;;;12.07;8.05;;;3.00;99.90;;;;;;5022640;28;20026;-77
2020/12/14 07:17:28;;;;;;;10.82;8.02;;;2.90;99.90;;;;;;5027332;28;20017;-78
2020/12/14 07:19:58;;;;;;;8.35;7.15;;;3.10;99.90;;;;;;5030742;28;20045;-77
2020/12/14 07:22:31;;;;;;;8.40;7.50;;;3.00;99.90;;;;;;5024495;28;20022;-76
2020/12/14 07:25:06;;;;;;;7.97;6.78;;;3.00;99.90;;;;;;5023381;28;20061;-77
2020/12/14 07:27:33;;;;;;;8.48;7.05;;;2.90;99.90;;;;;;5021374;28;20034;-78
2020/12/14 07:30:07;;;;;;;8.75;6.93;;;3.00;99.90;;;;;;5042926;28;20026;-78
2020/12/14 07:32:33;;;;;;;9.20;7.18;;;3.00;99.90;;;;;;5025208;28;20014;-78
2020/12/14 07:34:59;;;;;;;11.30;7.10;;;3.10;99.90;;;;;;5019821;28;20038;-77
2020/12/14 07:37:26;;;;;;;8.75;7.75;;;3.10;99.90;;;;;;5032194;28;20077;-78
2020/12/14 07:39:52;;;;;;;10.13;8.30;;;3.00;99.90;;;;;;5037356;28;20032;-78
2020/12/14 07:42:28;;;;;;;12.45;8.13;;;3.10;99.90;;;;;;5015681;28;20077;-78
2020/12/14 07:45:19;;;;;;;10.15;8.05;;;3.10;99.90;;;;;;5027618;28;20088;-79
2020/12/14 07:47:50;;;;;;;10.05;8.50;;;3.10;99.90;;;;;;5037304;28;20018;-78
2020/12/14 07:50:24;;;;;;;11.73;7.93;;;3.10;99.90;;;;;;5027587;28;20032;-79
2020/12/14 07:52:53;;;;;;;10.10;8.25;;;3.10;99.90;;;;;;5014032;28;20094;-77
2020/12/14 07:55:19;;;;;;;9.85;8.00;;;3.20;99.90;;;;;;5035726;28;20086;-75
2020/12/14 07:57:47;;;;;;;14.00;8.85;;;3.40;99.90;;;;;;5026850;28;20041;-77
2020/12/14 08:00:14;;;;;;;11.13;8.30;;;3.50;99.90;;;;;;5031289;28;20053;-78
2020/12/14 08:02:42;;;;;;;12.20;8.43;;;3.70;99.90;;;;;;5026507;28;20041;-78
2020/12/14 08:05:19;;;;;;;10.27;7.97;;;3.60;99.90;;;;;;5034489;28;20026;-78
2020/12/14 08:07:49;;;;;;;13.68;8.75;;;3.50;99.90;;;;;;5043170;28;20030;-78
2020/12/14 08:10:16;;;;;;;13.48;8.57;;;3.50;99.90;;;;;;5016332;28;20513;-77
2020/12/14 08:12:43;;;;;;;11.43;8.63;;;3.50;99.90;;;;;;5015225;28;20104;-78
2020/12/14 08:15:15;;;;;;;9.38;7.70;;;3.60;99.90;;;;;;5018921;28;20100;-77
2020/12/14 08:17:41;;;;;;;12.65;7.63;;;3.60;99.90;;;;;;5015197;28;20052;-79
2020/12/14 08:20:22;;;;;;;10.88;8.77;;;3.80;99.90;;;;;;5018781;28;20022;-78
2020/12/14 08:22:48;;;;;;;10.63;8.30;;;3.80;99.90;;;;;;5007023;28;20101;-77
2020/12/14 08:25:22;;;;;;;13.18;8.80;;;3.80;99.90;;;;;;5027303;28;20038;-76
2020/12/14 08:27:49;;;;;;;11.30;8.27;;;3.90;99.90;;;;;;5017886;28;20033;-77
2020/12/14 08:30:18;;;;;;;13.68;8.85;;;4.10;99.90;;;;;;5018461;28;20041;-79
2020/12/14 08:32:43;;;;;;;12.00;9.07;;;4.10;99.90;;;;;;5012926;28;20057;-78
2020/12/14 08:35:24;;;;;;;10.10;8.02;;;4.10;99.90;;;;;;5006585;28;20028;-79
2020/12/14 08:37:51;;;;;;;;;;;4.10;99.90;;;;;;5015768;28;20030;-79
2020/12/14 08:40:18;;;;;;;8.93;7.95;;;4.20;99.90;;;;;;5025749;28;19929;-77
2020/12/14 08:42:44;;;;;;;12.98;9.13;;;4.10;99.90;;;;;;5020394;28;20026;-78
2020/12/14 08:45:12;;;;;;;12.35;8.77;;;4.30;99.90;;;;;;5025250;28;20121;-78
2020/12/14 08:47:40;;;;;;;10.32;8.70;;;4.50;99.90;;;;;;5027484;28;20050;-78
2020/12/14 08:50:10;;;;;;;12.20;8.57;;;4.40;99.90;;;;;;5012909;28;20086;-79
2020/12/14 08:52:36;;;;;;;11.95;8.50;;;4.40;99.90;;;;;;5010620;28;20049;-80
2020/12/14 08:55:02;;;;;;;11.95;8.38;;;4.50;99.90;;;;;;5019245;28;20030;-80
2020/12/14 08:57:31;;;;;;;12.00;8.50;;;4.50;99.90;;;;;;5015383;28;20030;-76
2020/12/14 09:00:05;;;;;;;9.15;8.02;;;4.50;99.90;;;;;;5022356;28;20022;-79
2020/12/14 09:02:31;;;;;;;9.98;7.60;;;4.50;99.90;;;;;;5024119;28;20026;-77
2020/12/14 09:04:57;;;;;;;10.70;8.68;;;4.60;99.90;;;;;;5023208;28;20037;-78
2020/12/14 09:07:27;;;;;;;9.20;8.27;;;4.70;99.90;;;;;;5024330;28;20026;-79
2020/12/14 09:09:53;;;;;;;8.18;7.38;;;4.70;99.90;;;;;;5019706;28;20045;-79
2020/12/14 09:12:19;;;;;;;10.70;8.68;;;4.80;99.90;;;;;;5026474;28;20029;-78
2020/12/14 09:14:45;;;;;;;11.45;9.07;;;4.80;99.90;;;;;;5015245;28;20034;-78
2020/12/14 09:17:16;;;;;;;14.02;9.05;;;5.00;99.90;;;;;;5023567;28;20092;-78
2020/12/14 09:19:48;;;;;;;14.68;8.68;;;5.10;99.90;;;;;;5011595;28;20018;-79
2020/12/14 09:22:14;;;;;;;10.50;8.18;;;5.20;99.90;;;;;;5031463;28;20042;-79
2020/12/14 09:24:40;;;;;;;11.63;8.20;;;5.30;99.90;;;;;;5012341;28;20085;-79
2020/12/14 09:27:08;;;;;;;9.55;8.45;;;5.40;99.90;;;;;;5014945;28;20030;-78
2020/12/14 09:29:35;;;;;;;12.10;7.22;;;5.30;99.90;;;;;;5027406;28;20386;-79
2020/12/14 09:32:01;;;;;;;11.35;7.78;;;5.50;99.90;;;;;;5023657;28;20036;-78
2020/12/14 09:34:27;;;;;;;8.63;7.53;;;5.50;99.90;;;;;;5012744;28;20113;-81
2020/12/14 09:36:57;;;;;;;8.68;7.82;;;5.60;99.90;;;;;;5020044;28;20041;-78
2020/12/14 09:39:24;;;;;;;9.18;7.00;;;5.60;99.90;;;;;;5023189;28;20488;-78
2020/12/14 09:41:51;;;;;;;9.35;8.35;;;5.70;99.90;;;;;;5015269;28;20100;-78
2020/12/14 09:44:17;;;;;;;10.68;8.13;;;5.70;99.90;;;;;;5016354;28;20034;-78
2020/12/14 09:46:43;;;;;;;8.80;7.25;;;5.70;99.90;;;;;;5035663;28;20030;-80
2020/12/14 09:49:09;;;;;;;11.70;8.57;;;5.80;99.90;;;;;;5009720;28;20017;-78
2020/12/14 09:51:35;;;;;;;10.73;8.57;;;6.00;99.90;;;;;;5015614;28;20025;-79
2020/12/14 09:54:02;;;;;;;12.50;8.10;;;6.10;99.90;;;;;;5014332;28;20078;-78
2020/12/14 09:56:28;;;;;;;8.77;7.88;;;6.00;99.90;;;;;;5016094;28;20022;-77
2020/12/14 09:58:53;;;;;;;11.80;9.10;;;6.00;99.90;;;;;;5032669;28;20061;-78
2020/12/14 10:01:19;;;;;;;9.57;7.55;;;6.00;99.90;;;;;;5026386;28;20033;-77
2020/12/14 10:03:45;;;;;;;9.43;8.38;;;6.20;99.90;;;;;;5034974;28;20085;-77
2020/12/14 10:06:13;;;;;;;10.75;8.27;;;6.20;99.90;;;;;;5024332;28;20236;-79
2020/12/14 10:08:40;;;;;;;9.25;7.63;;;6.20;99.90;;;;;;5020691;28;20022;-78
2020/12/14 10:11:07;;;;;;;15.32;8.40;;;6.30;99.90;;;;;;5026600;28;20358;-79
2020/12/14 10:13:34;;;;;;;9.65;8.45;;;6.60;99.90;;;;;;5018774;28;20044;-78
2020/12/14 10:16:00;;;;;;;10.60;7.65;;;6.70;99.90;;;;;;5019433;28;20037;-77
2020/12/14 10:18:26;;;;;;;10.23;7.63;;;6.90;99.90;;;;;;5021120;28;20104;-77
2020/12/14 10:20:52;;;;;;;10.32;8.00;;;6.90;99.90;;;;;;5019755;28;20025;-78
2020/12/14 10:23:17;;;;;;;10.30;8.27;;;7.10;99.90;;;;;;5031545;28;20045;-77
2020/12/14 10:25:43;;;;;;;11.25;7.68;;;7.20;99.90;;;;;;5049137;28;20033;-78
2020/12/14 10:28:09;;;;;;;10.23;7.72;;;7.20;99.90;;;;;;5042437;28;20049;-79
2020/12/14 10:30:36;;;;;;;11.70;8.13;;;7.20;99.90;;;;;;5021937;28;20034;-79
2020/12/14 10:33:02;;;;;;;11.02;7.45;;;7.20;99.90;;;;;;5019374;28;20029;-78
2020/12/14 10:35:27;;;;;;;8.85;7.97;;;7.30;99.90;;;;;;5049009;28;20036;-79
2020/12/14 10:37:55;;;;;;;12.07;7.15;;;7.50;99.90;;;;;;5011274;28;20046;-77
2020/12/14 10:40:25;;;;;;;13.43;7.35;;;7.60;99.90;;;;;;5076710;23;20043;-81
2020/12/14 10:42:51;;;;;;;9.63;6.53;;;7.60;99.90;;;;;;4982056;28;20062;-79
2020/12/14 10:45:20;;;;;;;10.80;7.60;;;7.80;99.90;;;;;;4968683;28;20047;-78
2020/12/14 10:47:45;;;;;;;7.05;6.25;;;7.90;99.90;;;;;;4978322;28;20038;-77
2020/12/14 10:50:16;;;;;;;9.90;8.07;;;7.90;99.90;;;;;;4979909;28;20372;-77
2020/12/14 10:52:42;;;;;;;11.52;7.28;;;8.10;99.90;;;;;;4977095;28;20073;-76
2020/12/14 10:55:08;;;;;;;8.80;7.20;;;8.00;99.90;;;;;;4976482;28;20030;-77
2020/12/14 10:57:33;;;;;;;11.68;7.20;;;8.10;99.90;;;;;;4979002;28;20061;-77
2020/12/14 11:00:06;;;;;;;12.50;7.30;;;7.90;99.90;;;;;;4984277;28;20042;-75
2020/12/14 11:02:39;;;;;;;10.38;6.53;;;8.00;99.90;;;;;;4995150;28;20019;-76
2020/12/14 11:05:06;;;;;;;8.73;6.93;;;8.20;99.90;;;;;;4984281;28;20497;-77
2020/12/14 11:07:32;;;;;;;11.07;7.40;;;8.00;99.90;;;;;;4983000;28;20050;-77
2020/12/14 11:09:59;;;;;;;11.02;6.60;;;7.80;99.90;;;;;;4979781;28;20403;-77
2020/12/14 11:12:25;;;;;;;13.32;7.53;;;8.10;99.90;;;;;;4976912;28;20085;-77
2020/12/14 11:14:51;;;;;;;12.23;8.20;;;8.10;99.90;;;;;;4973925;28;20031;-80
2020/12/14 11:17:17;;;;;;;8.48;7.55;;;8.20;99.90;;;;;;4981716;28;20434;-80
2020/12/14 11:19:43;;;;;;;11.45;6.80;;;8.20;99.90;;;;;;4969532;28;20041;-78
2020/12/14 11:22:08;;;;;;;8.88;6.32;;;8.40;99.90;;;;;;4977208;28;20027;-79
2020/12/14 11:24:34;;;;;;;8.48;6.90;;;8.50;99.90;;;;;;4973537;28;20026;-80
2020/12/14 11:27:06;;;;;;;9.68;7.47;;;8.50;99.90;;;;;;4967028;28;20042;-79
2020/12/14 11:29:31;;;;;;;8.82;6.38;;;8.50;99.90;;;;;;4965201;28;20039;-80
2020/12/14 11:31:58;;;;;;;9.93;7.32;;;8.80;99.90;;;;;;4969341;28;20035;-78
2020/12/14 11:34:23;;;;;;;6.43;5.80;;;8.60;99.90;;;;;;4983385;28;20402;-79
2020/12/14 11:36:49;;;;;;;7.40;6.60;;;8.60;99.90;;;;;;4979238;28;20054;-78
2020/12/14 11:39:15;;;;;;;7.25;6.07;;;8.50;99.90;;;;;;4983127;28;20110;-79
2020/12/14 11:41:44;;;;;;;7.80;6.43;;;8.70;99.90;;;;;;4981988;28;20084;-79
2020/12/14 11:44:10;;;;;;;8.00;7.30;;;8.70;99.90;;;;;;4965497;28;20035;-80
2020/12/14 11:46:35;;;;;;;10.77;6.82;;;8.80;99.90;;;;;;4985025;28;20034;-77
2020/12/14 11:49:01;;;;;;;9.48;6.75;;;8.80;99.90;;;;;;4982646;28;20479;-79
2020/12/14 11:54:29;;;;;;;11.63;6.80;;;9.10;99.90;;;;;;4953939;28;20063;-79
2020/12/14 11:56:55;;;;;;;11.35;8.18;;;8.80;99.90;;;;;;4980693;28;20387;-78
2020/12/14 11:59:21;;;;;;;10.50;6.50;;;9.20;99.90;;;;;;4987083;28;20038;-80
2020/12/14 12:01:47;;;;;;;14.73;8.30;;;9.10;99.90;;;;;;5001159;28;20019;-78
2020/12/14 12:04:12;;;;;;;14.13;7.10;;;9.00;99.90;;;;;;4984205;28;20031;-78
2020/12/14 12:06:39;;;;;;;9.80;7.47;;;9.10;99.90;;;;;;4973370;28;20045;-78
2020/12/14 12:09:05;;;;;;;8.85;7.82;;;9.00;99.90;;;;;;4982363;28;20038;-79
2020/12/14 12:11:34;;;;;;;9.30;7.35;;;8.90;99.90;;;;;;4983385;28;20023;-78
2020/12/14 12:14:01;;;;;;;11.65;7.60;;;9.10;99.90;;;;;;4973518;28;20023;-78
2020/12/14 12:16:26;;;;;;;12.27;7.40;;;9.10;99.90;;;;;;4982277;28;20038;-78
2020/12/14 12:18:52;;;;;;;10.35;8.10;;;9.10;99.90;;;;;;4994879;28;20023;-75
2020/12/14 12:21:17;;;;;;;10.57;7.88;;;9.40;99.90;;;;;;4997168;28;20018;-77
2020/12/14 12:23:43;;;;;;;7.38;6.57;;;9.50;99.90;;;;;;4996881;28;20038;-78
2020/12/14 12:26:13;;;;;;;10.75;7.07;;;9.80;99.90;;;;;;4998117;28;20039;-78
2020/12/14 12:28:39;;;;;;;9.57;7.50;;;10.00;99.90;;;;;;4996798;28;20053;-77
2020/12/14 12:31:05;;;;;;;13.98;7.47;;;9.90;99.90;;;;;;4993193;28;20050;-79
2020/12/14 12:33:31;;;;;;;12.43;8.23;;;10.00;99.90;;;;;;4988301;28;20076;-78
2020/12/14 12:35:57;;;;;;;9.13;7.28;;;10.00;99.90;;;;;;4994406;28;20039;-77
2020/12/14 12:38:23;;;;;;;16.50;7.45;;;9.70;99.90;;;;;;4986922;28;20031;-80
2020/12/14 12:40:48;;;;;;;9.65;7.88;;;9.60;99.90;;;;;;4987108;28;20049;-78
2020/12/14 12:43:14;;;;;;;11.15;7.70;;;9.70;99.90;;;;;;4984711;28;20031;-79
2020/12/14 12:45:40;;;;;;;12.65;7.57;;;9.70;99.90;;;;;;4981100;28;20021;-80
2020/12/14 12:48:06;;;;;;;10.82;7.20;;;9.70;99.90;;;;;;4980196;28;20031;-80
2020/12/14 12:50:32;;;;;;;9.18;7.05;;;9.60;99.90;;;;;;4999512;28;20031;-78
2020/12/14 12:52:57;;;;;;;9.63;7.85;;;9.60;99.90;;;;;;4991974;28;20077;-78
2020/12/14 12:55:23;;;;;;;9.90;7.97;;;9.70;99.90;;;;;;5012001;28;20022;-79
2020/12/14 12:57:49;;;;;;;14.93;6.90;;;9.80;99.90;;;;;;4991637;28;20051;-78
2020/12/14 13:00:14;;;;;;;11.65;6.75;;;10.00;99.90;;;;;;4999896;28;20027;-78